Time;durP1;ratioP1;P1;durP2;ratioP2;P2;SDS_P1;SDS_P2;PMS_P1;PMS_P2;Temp;Humidity;BMP_temperature;BMP_pressure;BME280_temperature;BME280_humidity;BME280_pressure;Samples;Min_cycle;Max_cycle;Signal;HPM_P1;HPM_P2
2023/07/15 00:01:25;;;;;;;1.10;1.10;;;;;;;25.48;87.56;97108.81;5065225;28;20049;-66
2023/07/15 00:03:52;;;;;;;1.10;1.10;;;;;;;25.43;87.21;97098.06;5066179;28;20585;-66
2023/07/15 00:06:23;;;;;;;1.08;1.08;;;;;;;25.52;87.36;97109.44;5066168;28;20055;-65
2023/07/15 00:08:51;;;;;;;1.20;1.20;;;;;;;25.39;87.61;97117.31;5064614;28;20570;-66
2023/07/15 00:11:34;;;;;;;1.02;1.02;;;;;;;25.38;88.39;97112.88;5066170;28;20048;-67
2023/07/15 00:14:02;;;;;;;1.02;1.02;;;;;;;25.13;88.36;97077.75;5066004;28;20052;-65
2023/07/15 00:16:30;;;;;;;1.10;1.10;;;;;;;25.29;89.17;97113.59;5065680;28;20052;-66
2023/07/15 00:18:58;;;;;;;1.30;1.30;;;;;;;25.08;89.62;97089.72;5066380;28;20155;-66
2023/07/15 00:21:30;;;;;;;1.10;1.10;;;;;;;25.32;89.60;97119.13;5066143;28;20053;-65
2023/07/15 00:23:58;;;;;;;1.20;1.20;;;;;;;25.28;88.50;97121.31;5066207;28;20147;-66
2023/07/15 00:26:29;;;;;;;1.13;1.13;;;;;;;25.12;88.28;97104.53;5064862;28;20056;-67
2023/07/15 00:28:57;;;;;;;1.30;1.30;;;;;;;25.25;87.61;97129.94;5064674;28;20052;-66
2023/07/15 00:31:25;;;;;;;1.20;1.20;;;;;;;25.11;88.09;97127.69;5065439;28;20088;-66
2023/07/15 00:33:53;;;;;;;1.20;1.20;;;;;;;25.07;88.46;97127.81;5064273;28;20124;-66
2023/07/15 00:36:19;;;;;;;1.10;1.10;;;;;;;25.03;88.79;97130.00;5047324;28;20514;-66
2023/07/15 00:38:46;;;;;;;1.10;1.10;;;;;;;24.70;89.20;97122.38;5045758;28;20560;-66
2023/07/15 00:41:26;;;;;;;0.93;0.93;;;;;;;24.66;90.21;97133.84;5045207;28;20053;-66
2023/07/15 00:43:59;;;;;;;1.05;1.05;;;;;;;24.68;91.00;97145.50;5045564;28;20156;-66
2023/07/15 00:46:57;;;;;;;1.17;1.17;;;;;;;24.66;91.62;97145.16;5044069;28;20072;-67
2023/07/15 00:49:27;;;;;;;1.30;1.30;;;;;;;24.60;90.94;97135.66;5045684;28;20140;-66
2023/07/15 00:52:05;;;;;;;1.00;1.00;;;;;;;24.58;91.74;97143.81;5045189;28;20060;-66
2023/07/15 00:54:35;;;;;;;1.00;1.00;;;;;;;24.63;91.40;97142.44;5043782;28;20064;-66
2023/07/15 00:57:02;;;;;;;0.98;0.98;;;;;;;24.64;91.29;97146.88;5043727;28;20052;-66
2023/07/15 00:59:30;;;;;;;1.15;1.15;;;;;;;24.33;91.43;97097.84;5043853;28;20049;-66
2023/07/15 01:01:58;;;;;;;1.17;1.17;;;;;;;24.48;91.67;97122.34;5045473;28;20045;-66
2023/07/15 01:04:24;;;;;;;1.00;1.00;;;;;;;24.72;90.90;97149.00;5045597;28;20057;-67
2023/07/15 01:06:53;;;;;;;1.30;1.30;;;;;;;24.70;90.32;97154.34;5044873;28;20057;-67
2023/07/15 01:09:21;;;;;;;1.00;1.00;;;;;;;24.57;90.09;97156.41;5045460;28;20160;-66
2023/07/15 01:11:48;;;;;;;1.10;1.10;;;;;;;24.43;90.28;97139.13;5043655;28;20052;-67
2023/07/15 01:14:14;;;;;;;1.20;1.20;;;;;;;24.45;89.41;97139.47;5044737;28;20056;-67
2023/07/15 01:16:41;;;;;;;1.00;1.00;;;;;;;23.31;88.93;96959.97;5045178;28;20053;-66
2023/07/15 01:19:09;;;;;;;0.98;0.98;;;;;;;23.87;89.80;97071.13;5043099;28;20136;-66
2023/07/15 01:21:35;;;;;;;1.15;1.15;;;;;;;24.03;90.68;97112.69;5044918;28;20081;-66
2023/07/15 01:24:03;;;;;;;1.20;1.20;;;;;;;23.96;91.77;97122.16;5044955;28;20076;-66
2023/07/15 01:26:31;;;;;;;1.00;1.00;;;;;;;24.21;91.63;97147.59;5044923;28;20053;-66
2023/07/15 01:28:58;;;;;;;1.00;1.00;;;;;;;24.03;90.57;97107.78;5044878;28;20049;-68
2023/07/15 01:31:26;;;;;;;1.02;1.02;;;;;;;24.25;90.91;97148.25;5044556;28;20053;-66
2023/07/15 01:33:53;;;;;;;1.10;1.10;;;;;;;23.42;91.28;97040.34;5042971;28;20432;-66
2023/07/15 01:36:20;;;;;;;1.00;1.00;;;;;;;23.98;91.45;97139.50;5062029;28;20106;-66
2023/07/15 01:38:47;;;;;;;1.00;1.00;;;;;;;23.66;92.04;97134.09;5063383;28;20049;-66
2023/07/15 01:41:14;;;;;;;1.00;1.00;;;;;;;23.80;91.65;97153.44;5062938;28;20136;-67
2023/07/15 01:43:41;;;;;;;1.20;1.20;;;;;;;23.51;92.25;97133.78;5064772;28;20055;-66
2023/07/15 01:46:08;;;;;;;0.90;0.90;;;;;;;23.42;92.14;97135.69;5064436;28;20056;-66
2023/07/15 01:48:35;;;;;;;0.90;0.90;;;;;;;23.47;92.62;97152.88;5064127;28;20127;-65
2023/07/15 01:51:02;;;;;;;0.82;0.82;;;;;;;23.18;92.77;97108.97;5064561;28;20059;-66
2023/07/15 01:53:29;;;;;;;1.10;1.10;;;;;;;23.40;93.40;97155.94;5064365;28;20154;-66
2023/07/15 01:55:55;;;;;;;1.10;1.10;;;;;;;23.44;91.82;97134.00;5062449;28;20063;-66
2023/07/15 01:58:22;;;;;;;1.00;1.00;;;;;;;23.59;91.72;97190.91;5064029;28;20155;-65
2023/07/15 02:00:49;;;;;;;1.00;1.00;;;;;;;23.62;90.99;97161.69;5064115;28;20056;-66
2023/07/15 02:03:16;;;;;;;0.90;0.90;;;;;;;23.36;91.38;97140.34;5062530;28;20114;-66
2023/07/15 02:05:43;;;;;;;1.00;1.00;;;;;;;23.36;91.66;97137.50;5062346;28;20059;-67
2023/07/15 02:08:09;;;;;;;1.00;1.00;;;;;;;23.48;90.78;97139.53;5063978;28;20060;-66
2023/07/15 02:10:36;;;;;;;1.00;1.00;;;;;;;23.63;90.12;97152.75;5058858;28;20055;-66
2023/07/15 02:13:03;;;;;;;1.00;1.00;;;;;;;23.47;90.40;97126.66;5063857;28;20052;-66
2023/07/15 02:15:29;;;;;;;0.90;0.90;;;;;;;23.53;91.60;97153.91;5063454;28;20056;-66
2023/07/15 02:17:56;;;;;;;1.00;1.00;;;;;;;23.33;91.46;97127.13;5063402;28;20048;-66
2023/07/15 02:20:23;;;;;;;0.98;0.98;;;;;;;22.97;91.73;97075.75;5064036;28;20141;-66
2023/07/15 02:22:49;;;;;;;1.00;1.00;;;;;;;23.49;92.25;97158.09;5062496;28;20450;-66
2023/07/15 02:25:16;;;;;;;1.00;1.00;;;;;;;23.44;92.36;97155.84;5064152;28;20045;-66
2023/07/15 02:27:43;;;;;;;1.00;1.00;;;;;;;23.38;93.57;97163.28;5064154;28;20044;-66
2023/07/15 02:30:10;;;;;;;1.10;1.10;;;;;;;23.50;93.06;97176.66;5063925;28;20060;-66
2023/07/15 02:32:39;;;;;;;0.90;0.90;;;;;;;23.06;93.41;97115.41;5063551;28;20424;-66
2023/07/15 02:35:11;;;;;;;0.90;0.90;;;;;;;23.47;93.22;97177.56;5056690;28;20135;-66
2023/07/15 02:37:40;;;;;;;1.00;1.00;;;;;;;23.49;92.63;97180.72;5043551;28;20080;-65
2023/07/15 02:40:09;;;;;;;1.00;1.00;;;;;;;23.26;93.26;97141.47;5043367;28;20467;-67
2023/07/15 02:42:37;;;;;;;1.08;1.08;;;;;;;23.41;95.02;97174.47;5043644;28;20059;-66
2023/07/15 02:45:08;;;;;;;1.02;1.02;;;;;;;23.41;96.41;97179.38;5043452;28;20063;-66
2023/07/15 02:47:34;;;;;;;1.00;1.00;;;;;;;23.41;97.84;97182.19;5043730;28;20119;-65
2023/07/15 02:50:06;;;;;;;1.00;1.00;;;;;;;23.14;94.30;97136.56;5043926;28;20128;-66
2023/07/15 02:52:35;;;;;;;1.10;1.10;;;;;;;23.45;93.05;97188.53;5042195;28;20529;-66
2023/07/15 02:55:03;;;;;;;1.00;1.00;;;;;;;23.39;92.80;97181.84;5043341;28;20132;-65
2023/07/15 02:57:31;;;;;;;1.00;1.00;;;;;;;23.42;92.67;97186.59;5043532;28;20129;-65
2023/07/15 02:59:57;;;;;;;0.95;0.95;;;;;;;23.38;91.90;97180.25;5043170;28;20061;-66
2023/07/15 03:02:24;;;;;;;0.98;0.98;;;;;;;22.96;91.62;97125.00;5043615;28;20060;-65
2023/07/15 03:04:51;;;;;;;0.90;0.90;;;;;;;23.37;91.29;97189.97;5042455;28;20431;-65
2023/07/15 03:07:19;;;;;;;0.95;0.95;;;;;;;23.07;91.31;97139.59;5042187;28;20080;-65
2023/07/15 03:09:46;;;;;;;1.00;1.00;;;;;;;23.23;90.26;97173.44;5043446;28;20049;-66
2023/07/15 03:12:12;;;;;;;0.90;0.90;;;;;;;22.92;89.99;97141.28;5043192;28;20049;-65
2023/07/15 03:14:41;;;;;;;1.00;1.00;;;;;;;22.76;90.46;97116.75;5043167;28;20045;-66
2023/07/15 03:17:10;;;;;;;0.95;0.95;;;;;;;23.26;90.04;97193.16;5042919;28;20061;-66
2023/07/15 03:19:39;;;;;;;0.93;0.93;;;;;;;23.05;91.44;97178.81;5043483;28;20053;-66
2023/07/15 03:22:06;;;;;;;1.00;1.00;;;;;;;23.22;90.58;97195.25;5042766;28;20566;-66
2023/07/15 03:24:34;;;;;;;0.95;0.95;;;;;;;23.03;89.85;97153.06;5043529;28;20138;-65
2023/07/15 03:27:01;;;;;;;0.90;0.90;;;;;;;23.08;89.69;97156.09;5043239;28;20059;-65
2023/07/15 03:29:28;;;;;;;0.90;0.90;;;;;;;23.08;89.43;97150.44;5045349;28;20136;-66
2023/07/15 03:31:55;;;;;;;0.93;0.93;;;;;;;23.32;88.62;97182.06;5046751;28;20129;-66
2023/07/15 03:34:22;;;;;;;1.00;1.00;;;;;;;22.97;89.18;97154.88;5047474;28;20518;-65
2023/07/15 03:36:52;;;;;;;0.93;0.93;;;;;;;23.12;89.97;97187.09;5066299;28;20091;-65
2023/07/15 03:39:21;;;;;;;1.00;1.00;;;;;;;23.03;90.09;97182.09;5065166;28;20085;-65
2023/07/15 03:41:48;;;;;;;0.80;0.80;;;;;;;22.93;89.82;97173.94;5065081;28;20065;-66
2023/07/15 03:44:14;;;;;;;0.93;0.93;;;;;;;23.00;89.19;97168.09;5066621;28;20461;-66
2023/07/15 03:46:41;;;;;;;0.90;0.90;;;;;;;23.13;88.81;97180.19;5065568;28;20056;-66
2023/07/15 03:49:08;;;;;;;1.00;1.00;;;;;;;23.33;87.77;97197.78;5066330;28;20048;-66
2023/07/15 03:51:35;;;;;;;1.08;1.08;;;;;;;23.42;87.12;97193.06;5064786;28;20143;-66
2023/07/15 03:54:03;;;;;;;1.00;1.00;;;;;;;23.45;86.50;97206.28;5066298;28;20044;-66
2023/07/15 03:56:30;;;;;;;1.10;1.10;;;;;;;23.36;85.61;97179.94;5066086;28;20084;-65
2023/07/15 03:58:57;;;;;;;0.95;0.95;;;;;;;23.36;85.05;97160.91;5066248;28;20621;-65
2023/07/15 04:01:25;;;;;;;1.02;1.02;;;;;;;23.32;84.85;97157.41;5066246;28;20560;-66
2023/07/15 04:03:51;;;;;;;0.90;0.90;;;;;;;23.78;84.47;97210.47;5066208;28;20049;-66
2023/07/15 04:06:18;;;;;;;1.00;1.00;;;;;;;23.78;84.44;97204.03;5065806;28;20107;-66
2023/07/15 04:08:45;;;;;;;0.90;0.90;;;;;;;23.75;84.04;97199.28;5064960;28;20049;-65
2023/07/15 04:11:12;;;;;;;1.13;1.13;;;;;;;23.63;83.48;97166.13;5065715;28;20059;-66
2023/07/15 04:13:38;;;;;;;1.00;1.00;;;;;;;23.22;82.11;97095.53;5066279;28;20513;-66
2023/07/15 04:16:06;;;;;;;1.00;1.00;;;;;;;23.47;82.16;97126.66;5066349;28;20064;-67
2023/07/15 04:18:32;;;;;;;1.10;1.10;;;;;;;24.16;81.62;97201.16;5065941;28;20068;-65
2023/07/15 04:20:59;;;;;;;1.00;1.00;;;;;;;23.78;81.67;97141.78;5065653;28;20055;-66
2023/07/15 04:23:26;;;;;;;1.20;1.20;;;;;;;24.45;80.52;97219.56;5066465;28;20559;-66
2023/07/15 04:25:53;;;;;;;1.08;1.08;;;;;;;24.62;79.03;97209.66;5065789;28;20503;-66
2023/07/15 04:28:20;;;;;;;1.00;1.00;;;;;;;24.54;79.21;97199.03;5065374;28;20514;-66
2023/07/15 04:30:46;;;;;;;1.05;1.05;;;;;;;24.72;78.73;97216.22;5064733;28;20053;-67
2023/07/15 04:33:15;;;;;;;1.20;1.20;;;;;;;24.73;78.02;97207.25;5064148;28;20071;-67
2023/07/15 04:35:44;;;;;;;1.27;1.27;;;;;;;24.67;78.00;97169.44;5052281;28;20065;-68
2023/07/15 04:38:10;;;;;;;1.13;1.13;;;;;;;25.22;77.03;97228.09;5045461;28;20540;-67
2023/07/15 04:40:37;;;;;;;1.10;1.10;;;;;;;25.17;76.75;97206.00;5043097;28;20065;-66
2023/07/15 04:43:04;;;;;;;1.15;1.15;;;;;;;25.14;75.89;97201.28;5045991;28;20049;-68
2023/07/15 04:45:32;;;;;;;1.30;1.30;;;;;;;25.32;76.04;97237.47;5045121;28;21134;-66
2023/07/15 04:47:59;;;;;;;1.13;1.13;;;;;;;25.45;75.73;97234.56;5044577;28;20049;-66
2023/07/15 04:50:26;;;;;;;1.20;1.20;;;;;;;25.19;75.54;97171.53;5045589;28;20591;-66
2023/07/15 04:52:53;;;;;;;1.20;1.20;;;;;;;25.40;75.85;97232.34;5032146;28;20052;-65
2023/07/15 04:55:20;;;;;;;1.30;1.30;;;;;;;25.18;75.05;97152.94;5045012;28;20059;-65
2023/07/15 04:57:47;;;;;;;1.40;1.40;;;;;;;25.94;73.62;97232.63;5043772;28;20543;-66
2023/07/15 05:00:16;;;;;;;1.30;1.30;;;;;;;26.07;73.33;97219.91;5045460;28;20056;-66
2023/07/15 05:02:43;;;;;;;1.20;1.20;;;;;;;26.27;72.76;97225.19;5043592;28;20045;-67
2023/07/15 05:05:10;;;;;;;1.30;1.30;;;;;;;26.48;71.51;97232.78;5045285;28;20396;-66
2023/07/15 05:07:37;;;;;;;1.30;1.30;;;;;;;26.63;70.29;97228.06;5045052;28;20056;-67
2023/07/15 05:10:22;;;;;;;1.20;1.20;;;;;;;26.77;69.64;97233.16;5045145;28;20049;-66
2023/07/15 05:12:49;;;;;;;1.20;1.20;;;;;;;26.93;68.65;97230.03;5044572;28;20055;-67
2023/07/15 05:15:16;;;;;;;1.30;1.30;;;;;;;27.11;68.17;97227.16;5046920;28;20562;-66
2023/07/15 05:17:44;;;;;;;1.50;1.50;;;;;;;27.03;67.83;97223.03;5041248;28;20052;-66
2023/07/15 05:20:13;;;;;;;1.45;1.45;;;;;;;26.96;69.04;97223.38;5044694;28;20051;-66
2023/07/15 05:22:41;;;;;;;1.52;1.52;;;;;;;26.85;69.32;97205.22;5044460;28;20045;-66
2023/07/15 05:25:09;;;;;;;1.38;1.38;;;;;;;27.23;68.83;97231.91;5045137;28;20049;-66
2023/07/15 05:27:40;;;;;;;1.40;1.40;;;;;;;26.79;68.77;97173.78;5044354;28;20057;-68
2023/07/15 05:30:08;;;;;;;1.50;1.50;;;;;;;26.95;70.38;97227.50;5044536;28;20363;-66
2023/07/15 05:32:36;;;;;;;1.25;1.25;;;;;;;27.15;68.62;97219.25;5044949;28;20052;-67
2023/07/15 05:35:04;;;;;;;1.45;1.45;;;;;;;25.92;66.23;97005.97;5043276;28;20056;-66
2023/07/15 05:37:30;;;;;;;1.63;1.63;;;;;;;27.33;64.86;97167.25;5044381;28;20059;-67
2023/07/15 05:39:57;;;;;;;1.40;1.40;;;;;;;27.54;58.85;97198.34;5042479;28;20622;-66
2023/07/15 05:42:24;;;;;;;1.42;1.42;;;;;;;27.35;62.36;97159.81;5044522;28;20053;-67
2023/07/15 05:44:51;;;;;;;1.60;1.60;;;;;;;27.07;64.32;97195.25;5044824;28;20128;-66
2023/07/15 05:47:17;;;;;;;1.55;1.55;;;;;;;27.63;60.51;97198.28;5044367;28;20323;-66
2023/07/15 05:49:46;;;;;;;1.60;1.60;;;;;;;28.27;59.10;97235.88;5044601;28;20151;-66
2023/07/15 05:52:13;;;;;;;1.58;1.58;;;;;;;28.50;58.45;97220.09;5044045;28;20083;-67
2023/07/15 05:54:40;;;;;;;1.50;1.50;;;;;;;28.83;58.52;97243.63;5044369;28;20110;-66
2023/07/15 05:57:06;;;;;;;1.52;1.52;;;;;;;28.88;57.09;97240.09;5043927;28;20065;-66
2023/07/15 05:59:33;;;;;;;1.67;1.67;;;;;;;28.96;55.16;97232.75;5044447;28;20511;-67
2023/07/15 06:02:00;;;;;;;1.80;1.80;;;;;;;28.94;55.00;97226.75;5044119;28;20430;-65
2023/07/15 06:04:26;;;;;;;1.63;1.63;;;;;;;28.99;55.90;97228.91;5044605;28;20048;-66
2023/07/15 06:06:53;;;;;;;1.83;1.83;;;;;;;29.24;56.16;97234.88;5044237;28;20431;-67
2023/07/15 06:09:20;;;;;;;1.42;1.42;;;;;;;29.38;55.13;97239.03;5044256;28;20049;-67
2023/07/15 06:11:46;;;;;;;1.50;1.50;;;;;;;28.26;55.06;97079.63;5039474;28;20063;-62
2023/07/15 06:14:13;;;;;;;1.80;1.80;;;;;;;29.65;54.09;97240.84;5038842;28;20073;-64
2023/07/15 06:16:40;;;;;;;1.50;1.50;;;;;;;28.33;57.04;97127.72;5042672;28;20057;-64
2023/07/15 06:19:07;;;;;;;1.80;1.80;;;;;;;28.86;55.43;97134.25;5050116;28;20461;-64
2023/07/15 06:21:36;;;;;;;1.45;1.45;;;;;;;29.68;54.19;97220.69;5046307;28;20045;-65
2023/07/15 06:24:03;;;;;;;1.65;1.65;;;;;;;29.96;53.62;97244.78;5041950;28;20511;-66
2023/07/15 06:26:30;;;;;;;1.70;1.70;;;;;;;28.96;54.32;97075.84;5043710;28;20147;-64
2023/07/15 06:28:56;;;;;;;1.67;1.67;;;;;;;30.18;53.03;97205.13;5042720;28;20135;-65
2023/07/15 06:31:23;;;;;;;1.60;1.60;;;;;;;30.42;52.30;97231.50;5021950;28;20054;-65
2023/07/15 06:33:50;;;;;;;1.75;1.75;;;;;;;30.58;51.45;97238.75;5033135;28;20139;-69
2023/07/15 06:36:17;;;;;;;1.83;1.83;;;;;;;30.44;50.75;97203.22;5041672;28;20230;-64
2023/07/15 06:38:43;;;;;;;1.58;1.58;;;;;;;30.18;51.36;97233.69;5042747;28;20045;-61
2023/07/15 06:41:10;;;;;;;1.65;1.65;;;;;;;29.69;49.92;97128.00;5043263;28;20056;-63
2023/07/15 06:43:38;;;;;;;2.10;2.10;;;;;;;29.92;50.69;97171.97;5038438;28;20061;-65
2023/07/15 06:46:06;;;;;;;1.90;1.90;;;;;;;30.16;50.14;97190.53;5041490;28;20528;-64
2023/07/15 06:48:33;;;;;;;1.90;1.90;;;;;;;30.52;50.28;97232.97;5041475;28;20567;-62
2023/07/15 06:51:00;;;;;;;1.50;1.50;;;;;;;30.10;50.21;97152.50;5042500;28;20033;-64
2023/07/15 06:53:27;;;;;;;1.52;1.52;;;;;;;30.67;50.80;97236.53;5037917;28;20051;-63
2023/07/15 06:55:54;;;;;;;2.00;2.00;;;;;;;30.94;49.82;97241.88;5038768;28;20057;-61
2023/07/15 06:58:40;;;;;;;1.88;1.88;;;;;;;30.70;49.40;97206.94;5041766;28;20049;-64
2023/07/15 07:01:10;;;;;;;1.75;1.75;;;;;;;30.16;50.61;97241.97;5026286;28;20131;-64
2023/07/15 07:03:37;;;;;;;1.90;1.90;;;;;;;30.18;50.45;97219.41;5023953;28;20056;-65
2023/07/15 07:06:04;;;;;;;1.80;1.80;;;;;;;30.50;50.98;97243.31;5027670;28;20049;-65
2023/07/15 07:08:31;;;;;;;1.60;1.60;;;;;;;30.33;50.76;97213.69;5042844;28;20049;-65
2023/07/15 07:10:58;;;;;;;1.70;1.70;;;;;;;30.66;49.84;97240.69;5036602;28;20151;-64
2023/07/15 07:13:24;;;;;;;1.75;1.75;;;;;;;30.56;50.14;97219.22;5046024;28;20059;-63
2023/07/15 07:15:51;;;;;;;1.80;1.80;;;;;;;30.59;50.13;97246.81;5046728;28;20575;-63
2023/07/15 07:18:18;;;;;;;1.80;1.80;;;;;;;30.72;48.96;97210.06;5041430;28;20534;-65
2023/07/15 07:20:45;;;;;;;1.75;1.75;;;;;;;30.45;49.18;97195.41;5034666;28;20049;-67
2023/07/15 07:23:12;;;;;;;1.42;1.42;;;;;;;30.86;49.85;97231.34;5045704;28;20041;-63
2023/07/15 07:25:41;;;;;;;1.88;1.88;;;;;;;31.15;48.91;97236.13;5046086;28;20044;-68
2023/07/15 07:28:08;;;;;;;2.03;2.03;;;;;;;29.99;49.99;97203.78;5047010;28;20535;-62
2023/07/15 07:30:35;;;;;;;1.58;1.58;;;;;;;29.25;53.07;97187.16;5033148;28;20126;-65
2023/07/15 07:33:02;;;;;;;1.40;1.40;;;;;;;29.24;53.13;97171.31;5039681;28;20049;-66
2023/07/15 07:35:28;;;;;;;1.70;1.70;;;;;;;30.27;51.80;97202.16;5046552;28;20052;-65
2023/07/15 07:37:55;;;;;;;1.55;1.55;;;;;;;30.26;50.86;97106.25;5036727;28;20358;-68
2023/07/15 07:40:22;;;;;;;1.77;1.77;;;;;;;30.71;49.82;97144.78;5031905;28;20064;-63
2023/07/15 07:42:49;;;;;;;1.90;1.90;;;;;;;30.90;49.99;97157.53;5044362;28;20036;-64
2023/07/15 07:45:16;;;;;;;1.55;1.55;;;;;;;31.48;48.69;97202.16;5045081;28;20507;-67
2023/07/15 07:47:43;;;;;;;1.70;1.70;;;;;;;31.44;47.52;97165.13;5026604;28;20536;-64
2023/07/15 07:50:10;;;;;;;1.40;1.40;;;;;;;31.91;47.81;97224.72;5035142;28;20110;-67
2023/07/15 07:52:37;;;;;;;1.80;1.80;;;;;;;31.90;47.24;97230.97;5045073;28;20135;-65
2023/07/15 07:55:04;;;;;;;1.70;1.70;;;;;;;31.81;47.54;97206.09;5042289;28;20128;-67
2023/07/15 07:57:31;;;;;;;1.80;1.80;;;;;;;31.65;46.47;97171.56;5042937;28;20056;-67
2023/07/15 07:59:57;;;;;;;1.80;1.80;;;;;;;32.06;45.81;97201.63;5041012;28;20055;-69
2023/07/15 08:02:24;;;;;;;1.60;1.60;;;;;;;30.97;46.57;97044.69;5043615;28;20053;-64
2023/07/15 08:04:51;;;;;;;1.98;1.98;;;;;;;32.23;46.85;97216.91;5044479;28;20060;-65
2023/07/15 08:07:18;;;;;;;1.83;1.83;;;;;;;32.24;46.01;97212.72;5046100;28;21195;-68
2023/07/15 08:09:45;;;;;;;1.80;1.80;;;;;;;32.43;46.06;97225.41;5044572;28;20105;-64
2023/07/15 08:12:11;;;;;;;1.88;1.88;;;;;;;31.11;45.10;97053.13;5042184;28;20077;-70
2023/07/15 08:14:38;;;;;;;2.10;2.10;;;;;;;31.45;45.30;97131.56;5040511;28;20435;-68
2023/07/15 08:17:05;;;;;;;1.90;1.90;;;;;;;32.28;45.63;97264.88;5043462;28;20459;-70
2023/07/15 08:19:31;;;;;;;2.10;2.10;;;;;;;32.55;45.51;97232.78;5046311;28;20045;-64
2023/07/15 08:21:58;;;;;;;1.70;1.70;;;;;;;31.67;46.41;97220.56;5045548;28;20056;-71
2023/07/15 08:24:25;;;;;;;1.50;1.50;;;;;;;32.00;46.20;97220.88;5046020;28;20052;-72
2023/07/15 08:26:52;;;;;;;1.77;1.77;;;;;;;31.90;45.08;97145.00;5044396;28;20056;-67
2023/07/15 08:29:19;;;;;;;1.80;1.80;;;;;;;32.12;45.44;97205.34;5035870;28;20060;-69
2023/07/15 08:31:46;;;;;;;1.58;1.58;;;;;;;31.70;45.35;97104.94;5042404;28;20049;-66
2023/07/15 08:34:13;;;;;;;1.77;1.77;;;;;;;32.75;43.57;97217.50;5041653;28;20098;-69
2023/07/15 08:36:40;;;;;;;1.70;1.70;;;;;;;32.71;44.33;97183.28;5045015;28;20053;-63
2023/07/15 08:39:07;;;;;;;2.13;2.13;;;;;;;32.96;43.59;97216.84;5040361;28;20045;-63
2023/07/15 08:41:34;;;;;;;1.70;1.70;;;;;;;32.76;44.80;97185.41;5025162;28;20065;-66
2023/07/15 08:44:01;;;;;;;1.77;1.77;;;;;;;32.07;45.32;97102.88;5033556;28;20045;-69
2023/07/15 08:46:30;;;;;;;1.85;1.85;;;;;;;33.00;44.05;97205.91;5044158;28;20053;-76
2023/07/15 08:48:59;;;;;;;1.70;1.70;;;;;;;32.91;44.34;97208.97;5043879;28;20053;-66
2023/07/15 08:51:30;;;;;;;1.90;1.90;;;;;;;32.58;45.68;97173.59;5024064;28;20048;-65
2023/07/15 08:54:00;;;;;;;1.60;1.60;;;;;;;31.82;46.05;97149.59;5042084;28;20124;-67
2023/07/15 08:56:32;;;;;;;1.70;1.70;;;;;;;32.64;45.10;97194.47;5040885;28;20053;-72
2023/07/15 08:58:59;;;;;;;1.80;1.80;;;;;;;31.54;47.07;97206.63;5051869;28;20057;-64
2023/07/15 09:01:26;;;;;;;1.80;1.80;;;;;;;31.46;46.52;97153.19;5033565;28;20513;-70
2023/07/15 09:03:52;;;;;;;1.50;1.50;;;;;;;32.07;45.45;97157.34;5043704;28;20099;-70
2023/07/15 09:06:19;;;;;;;2.00;2.00;;;;;;;32.84;44.23;97203.72;5044246;28;20092;-64
2023/07/15 09:08:50;;;;;;;1.90;1.90;;;;;;;33.11;44.21;97194.44;5029499;28;20056;-73
2023/07/15 09:11:17;;;;;;;1.85;1.85;;;;;;;32.22;45.87;97218.19;5045219;28;20053;-71
2023/07/15 09:13:44;;;;;;;2.00;2.00;;;;;;;32.91;43.82;97197.50;5024951;28;20045;-72
2023/07/15 09:16:13;;;;;;;1.83;1.83;;;;;;;33.40;43.84;97204.75;5058752;28;20049;-71
2023/07/15 09:18:40;;;;;;;2.05;2.05;;;;;;;33.47;43.07;97205.00;5044687;28;20396;-71
2023/07/15 09:21:09;;;;;;;1.60;1.60;;;;;;;31.96;44.61;97203.13;5044632;28;20055;-71
2023/07/15 09:23:42;;;;;;;1.75;1.75;;;;;;;31.70;44.97;97208.09;5044747;28;20063;-71
2023/07/15 09:26:09;;;;;;;1.95;1.95;;;;;;;31.97;44.96;97181.78;5044715;28;20144;-72
2023/07/15 09:28:37;;;;;;;1.77;1.77;;;;;;;31.72;45.33;97171.13;5044975;28;20511;-73
2023/07/15 09:31:04;;;;;;;2.05;2.05;;;;;;;32.57;44.36;97195.75;5059560;28;20041;-70
2023/07/15 09:33:33;;;;;;;2.00;2.00;;;;;;;32.68;43.80;97195.81;5059529;28;20053;-70
2023/07/15 09:36:01;;;;;;;2.00;2.00;;;;;;;33.00;43.10;97188.69;5048558;28;20051;-69
2023/07/15 09:38:39;;;;;;;1.95;1.95;;;;;;;33.29;42.11;97170.22;5064508;28;20055;-71
2023/07/15 09:41:08;;;;;;;2.03;2.03;;;;;;;33.13;42.51;97145.13;5049048;28;20060;-71
2023/07/15 09:43:50;;;;;;;1.80;1.80;;;;;;;32.54;42.92;97191.03;5042953;28;20110;-72
2023/07/15 09:46:19;;;;;;;2.08;2.08;;;;;;;32.56;43.73;97142.53;5044176;28;20449;-70
2023/07/15 09:48:48;;;;;;;1.67;1.67;;;;;;;32.99;42.58;97172.72;5044175;28;20053;-70
2023/07/15 09:51:16;;;;;;;1.70;1.70;;;;;;;32.95;43.33;97180.81;5043482;28;20531;-71
2023/07/15 09:53:52;;;;;;;1.60;1.60;;;;;;;32.99;43.13;97171.97;5044150;28;20149;-70
2023/07/15 09:56:23;;;;;;;1.80;1.80;;;;;;;32.80;43.99;97188.81;5043748;28;20119;-71
2023/07/15 09:58:53;;;;;;;1.80;1.80;;;;;;;33.28;42.48;97192.41;5042705;28;20053;-71
2023/07/15 10:01:43;;;;;;;2.15;2.15;;;;;;;33.70;42.09;97183.59;5059065;28;20545;-71
2023/07/15 10:04:22;;;;;;;1.88;1.88;;;;;;;33.18;43.30;97181.69;5042793;28;20110;-71
2023/07/15 10:06:51;;;;;;;1.92;1.92;;;;;;;32.34;44.81;97156.75;5044259;28;20439;-70
2023/07/15 10:09:19;;;;;;;2.17;2.17;;;;;;;33.29;44.05;97158.72;5044024;28;20558;-72
2023/07/15 10:11:48;;;;;;;1.70;1.70;;;;;;;33.73;43.52;97173.94;5043956;28;20044;-71
2023/07/15 10:14:15;;;;;;;1.77;1.77;;;;;;;34.16;42.84;97168.72;5043958;28;20049;-71
2023/07/15 10:16:43;;;;;;;2.10;2.10;;;;;;;34.33;41.52;97114.03;5044110;28;20050;-71
2023/07/15 10:19:42;;;;;;;1.88;1.88;;;;;;;33.60;43.44;97164.28;5044467;28;20056;-71
2023/07/15 10:22:10;;;;;;;2.00;2.00;;;;;;;34.03;42.54;97141.81;5043729;28;20559;-71
2023/07/15 10:24:40;;;;;;;1.60;1.60;;;;;;;33.00;44.31;97137.00;5043742;28;20060;-70
2023/07/15 10:27:09;;;;;;;2.15;2.15;;;;;;;32.15;46.08;97083.91;5043519;28;20103;-71
2023/07/15 10:29:39;;;;;;;1.75;1.75;;;;;;;32.57;45.53;97167.06;5043814;28;20056;-72
2023/07/15 10:32:12;;;;;;;1.95;1.95;;;;;;;33.18;44.24;97165.22;5042322;28;20055;-71
2023/07/15 10:34:50;;;;;;;1.90;1.90;;;;;;;33.50;43.92;97114.91;5044229;28;20063;-71
2023/07/15 10:37:18;;;;;;;2.10;2.10;;;;;;;33.17;42.55;96962.63;5053938;28;20831;-72
2023/07/15 10:39:46;;;;;;;2.03;2.03;;;;;;;34.62;41.89;97142.22;5062871;28;20071;-72
2023/07/15 10:42:15;;;;;;;1.85;1.85;;;;;;;35.03;41.15;97140.25;5063420;28;20419;-71
2023/07/15 10:44:44;;;;;;;1.60;1.60;;;;;;;35.27;41.42;97140.34;5062317;28;20060;-72
2023/07/15 10:47:15;;;;;;;1.90;1.90;;;;;;;35.35;40.80;97106.75;5063592;28;20097;-72
2023/07/15 10:49:43;;;;;;;1.92;1.92;;;;;;;35.96;39.65;97141.72;5063680;28;20068;-72
2023/07/15 10:52:11;;;;;;;1.95;1.95;;;;;;;36.07;39.26;97101.22;5046814;28;20049;-71
2023/07/15 10:54:39;;;;;;;2.17;2.17;;;;;;;34.63;42.16;97097.72;5043594;28;20049;-71
2023/07/15 10:57:12;;;;;;;2.13;2.13;;;;;;;32.89;42.86;96913.06;5043394;28;20439;-71
2023/07/15 10:59:40;;;;;;;2.47;2.40;;;;;;;35.39;41.99;97126.69;5043582;28;20760;-72
2023/07/15 11:02:08;;;;;;;1.88;1.88;;;;;;;34.68;42.24;97128.59;5043300;28;20052;-71
2023/07/15 11:04:36;;;;;;;2.20;2.20;;;;;;;34.91;42.38;97084.78;5044091;28;20131;-71
2023/07/15 11:07:06;;;;;;;2.00;2.00;;;;;;;35.91;40.99;97125.22;5043540;28;20429;-71
2023/07/15 11:09:38;;;;;;;2.00;2.00;;;;;;;36.02;40.49;97093.41;5042357;28;20049;-70
2023/07/15 11:12:10;;;;;;;2.20;2.20;;;;;;;36.20;40.21;97123.63;5043340;28;20520;-71
2023/07/15 11:14:42;;;;;;;2.28;2.28;;;;;;;36.29;39.83;97103.84;5043225;28;20482;-71
2023/07/15 11:17:15;;;;;;;1.88;1.88;;;;;;;36.60;38.42;97110.38;5058496;28;20057;-71
2023/07/15 11:19:45;;;;;;;2.20;2.20;;;;;;;36.47;39.47;97114.69;5043770;28;20057;-71
2023/07/15 11:22:11;;;;;;;2.38;2.35;;;;;;;37.00;39.19;97112.22;5042802;28;20515;-71
2023/07/15 11:24:38;;;;;;;2.15;2.15;;;;;;;36.55;39.40;97102.53;5043227;28;20080;-71
2023/07/15 11:27:05;;;;;;;2.10;2.10;;;;;;;36.18;40.46;97115.53;5042855;28;20596;-71
2023/07/15 11:29:32;;;;;;;2.33;2.33;;;;;;;35.17;39.91;97052.69;5043035;28;20188;-71
2023/07/15 11:32:00;;;;;;;2.13;2.13;;;;;;;34.18;42.28;97009.97;5041412;28;20677;-73
2023/07/15 11:34:27;;;;;;;2.10;2.10;;;;;;;34.55;42.61;97108.22;5043475;28;20087;-71
2023/07/15 11:36:55;;;;;;;1.77;1.77;;;;;;;35.33;40.64;97074.78;5043863;28;20055;-72
2023/07/15 11:39:22;;;;;;;2.10;2.10;;;;;;;35.95;40.61;97079.56;5043175;28;20045;-71